createdAt,value
2018-08-24T00:00:50.463Z,9.0
2018-08-24T00:02:50.426Z,9.3
2018-08-24T00:04:49.707Z,9.4
2018-08-24T00:06:49.893Z,9.1
2018-08-24T00:08:50.088Z,8.8
2018-08-24T00:10:50.071Z,9.2
2018-08-24T00:12:50.080Z,9.2
2018-08-24T00:14:50.058Z,9.3
2018-08-24T00:16:50.255Z,9.7
2018-08-24T00:18:50.380Z,10.0
2018-08-24T00:20:50.353Z,9.3
2018-08-24T00:22:50.412Z,9.3
2018-08-24T00:24:50.425Z,9.2
2018-08-24T00:26:49.608Z,9.2
2018-08-24T00:28:49.621Z,9.5
2018-08-24T00:30:49.680Z,9.5
2018-08-24T00:32:49.765Z,9.5
2018-08-24T00:34:50.128Z,9.1
2018-08-24T00:36:50.384Z,9.3
2018-08-24T00:38:50.491Z,9.4
2018-08-24T00:40:49.561Z,9.4
2018-08-24T00:42:49.858Z,9.2
2018-08-24T00:44:50.212Z,8.9
2018-08-24T00:46:50.381Z,9.1
2018-08-24T00:48:49.526Z,9.2
2018-08-24T00:50:49.530Z,9.2
2018-08-24T00:52:49.669Z,9.2
2018-08-24T00:54:49.675Z,9.1
2018-08-24T00:56:49.847Z,9.1
2018-08-24T00:58:49.907Z,9.1
2018-08-24T01:00:49.968Z,8.8
2018-08-24T01:02:49.979Z,9.0
2018-08-24T01:04:50.245Z,9.0
2018-08-24T01:06:50.373Z,8.8
2018-08-24T01:08:50.427Z,8.8
2018-08-24T01:10:50.354Z,8.7
2018-08-24T01:12:50.375Z,8.6
2018-08-24T01:14:50.303Z,8.7
2018-08-24T01:16:50.504Z,8.4
2018-08-24T01:18:49.506Z,8.4
2018-08-24T01:20:49.558Z,8.4
2018-08-24T01:22:49.603Z,8.4
2018-08-24T01:24:49.546Z,8.4
2018-08-24T01:26:49.858Z,8.7
2018-08-24T01:28:49.883Z,8.7
2018-08-24T01:30:49.907Z,8.0
2018-08-24T01:32:49.955Z,8.2
2018-08-24T01:34:50.306Z,8.3
2018-08-24T01:36:49.874Z,8.3
2018-08-24T01:38:49.834Z,8.3
2018-08-24T01:40:49.777Z,8.4
2018-08-24T01:42:49.797Z,7.7
2018-08-24T01:44:49.753Z,7.7
2018-08-24T01:46:49.816Z,7.6
2018-08-24T01:48:49.762Z,7.6
2018-08-24T01:50:49.755Z,7.8
2018-08-24T01:52:49.771Z,7.4
2018-08-24T01:54:49.798Z,7.4
2018-08-24T01:56:50.029Z,7.0
2018-08-24T01:58:50.009Z,7.2
2018-08-24T02:00:50.033Z,7.8
2018-08-24T02:02:50.080Z,7.8
2018-08-24T02:04:50.399Z,7.3
2018-08-24T02:06:49.646Z,7.3
2018-08-24T02:08:49.562Z,7.7
2018-08-24T02:10:49.547Z,7.3
2018-08-24T02:12:50.475Z,6.9
2018-08-24T02:14:50.502Z,7.8
2018-08-24T02:16:49.679Z,7.8
2018-08-24T02:18:49.661Z,7.5
2018-08-24T02:20:49.717Z,7.4
2018-08-24T02:22:49.714Z,7.3
2018-08-24T02:24:49.674Z,7.2
2018-08-24T02:26:50.010Z,7.2
2018-08-24T02:28:49.952Z,7.7
2018-08-24T02:30:50.004Z,7.6
2018-08-24T02:32:50.035Z,7.4
2018-08-24T02:34:50.333Z,7.4
2018-08-24T02:36:49.528Z,7.9
2018-08-24T02:38:49.541Z,7.2
2018-08-24T02:40:49.617Z,7.6
2018-08-24T02:42:49.640Z,7.6
2018-08-24T02:44:49.694Z,7.1
2018-08-24T02:46:49.788Z,6.9
2018-08-24T02:48:49.881Z,7.2
2018-08-24T02:50:49.866Z,7.1
2018-08-24T02:52:49.838Z,7.3
2018-08-24T02:54:49.806Z,7.3
2018-08-24T02:56:50.088Z,7.3
2018-08-24T02:58:50.057Z,7.1
2018-08-24T03:00:50.020Z,6.6
2018-08-24T03:02:50.045Z,7.0
2018-08-24T03:04:50.282Z,7.0
2018-08-24T03:06:50.528Z,7.6
2018-08-24T03:08:49.605Z,7.2
2018-08-24T03:10:49.640Z,7.6
2018-08-24T03:12:49.654Z,7.6
2018-08-24T03:14:49.671Z,7.6
2018-08-24T03:16:49.928Z,7.6
2018-08-24T03:18:50.119Z,7.7
2018-08-24T03:20:50.089Z,7.5
2018-08-24T03:22:50.093Z,7.4
2018-08-24T03:24:50.118Z,7.4
2018-08-24T03:26:50.320Z,7.4
2018-08-24T03:28:50.449Z,7.8
2018-08-24T03:30:50.410Z,7.2
2018-08-24T03:32:50.459Z,7.2
2018-08-24T03:34:49.856Z,7.4
2018-08-24T03:36:49.986Z,7.4
2018-08-24T03:38:49.920Z,6.8
2018-08-24T03:40:49.849Z,7.1
2018-08-24T03:42:49.816Z,7.6
2018-08-24T03:44:49.835Z,7.6
2018-08-24T03:46:49.990Z,7.6
2018-08-24T03:48:49.980Z,9.8
2018-08-24T03:50:49.978Z,7.7
2018-08-24T03:52:50.196Z,7.7
2018-08-24T03:54:49.645Z,7.7
2018-08-24T03:56:49.912Z,7.8
2018-08-24T03:58:50.016Z,7.6
2018-08-24T04:00:50.050Z,7.6
2018-08-24T04:02:50.057Z,7.6
2018-08-24T04:04:50.483Z,7.4
2018-08-24T04:06:49.702Z,7.8
2018-08-24T04:08:49.719Z,8.0
2018-08-24T04:10:49.795Z,8.0
2018-08-24T04:12:49.957Z,7.9
2018-08-24T04:14:50.253Z,9.5
2018-08-24T04:16:50.408Z,8.3
2018-08-24T04:18:50.333Z,8.3
2018-08-24T04:20:50.367Z,8.2
2018-08-24T04:22:50.300Z,8.2
2018-08-24T04:24:50.262Z,8.1
2018-08-24T04:26:50.146Z,8.4
2018-08-24T04:28:50.155Z,8.4
2018-08-24T04:30:50.108Z,7.8
2018-08-24T04:32:50.175Z,7.8
2018-08-24T04:34:49.782Z,8.4
2018-08-24T04:36:50.039Z,9.0
2018-08-24T04:38:50.016Z,8.5
2018-08-24T04:40:49.988Z,8.5
2018-08-24T04:42:49.990Z,8.4
2018-08-24T04:44:49.950Z,8.1
2018-08-24T04:46:50.131Z,8.1
2018-08-24T04:48:50.136Z,8.1
2018-08-24T04:50:50.125Z,8.1
2018-08-24T04:52:50.140Z,7.6
2018-08-24T04:54:50.119Z,8.1
2018-08-24T04:56:50.253Z,7.7
2018-08-24T04:58:50.228Z,8.2
2018-08-24T05:00:50.297Z,8.2
2018-08-24T05:02:50.266Z,7.7
2018-08-24T05:04:49.657Z,7.8
2018-08-24T05:06:49.897Z,8.7
2018-08-24T05:08:49.902Z,8.7
2018-08-24T05:10:49.913Z,8.4
2018-08-24T05:12:49.985Z,8.6
2018-08-24T05:14:49.993Z,8.9
2018-08-24T05:16:50.142Z,9.7
2018-08-24T05:18:50.123Z,9.9
2018-08-24T05:20:50.132Z,9.9
2018-08-24T05:22:50.204Z,9.9
2018-08-24T05:24:50.357Z,9.0
2018-08-24T05:26:50.094Z,10.1
2018-08-24T05:28:50.159Z,10.1
2018-08-24T05:30:50.164Z,9.9
2018-08-24T05:32:50.169Z,9.5
2018-08-24T05:34:50.420Z,9.2
2018-08-24T05:36:50.236Z,9.6
2018-08-24T05:38:50.222Z,9.6
2018-08-24T05:40:50.242Z,10.1
2018-08-24T05:42:50.229Z,10.2
2018-08-24T05:44:50.235Z,10.2
2018-08-24T05:46:50.414Z,10.2
2018-08-24T05:48:49.713Z,10.2
2018-08-24T05:50:50.060Z,10.3
2018-08-24T05:52:50.032Z,10.0
2018-08-24T05:54:50.027Z,10.1
2018-08-24T05:56:50.132Z,10.1
2018-08-24T05:58:50.304Z,11.4
2018-08-24T06:00:50.296Z,10.9
2018-08-24T06:02:50.400Z,10.2
2018-08-24T06:04:49.689Z,10.5
2018-08-24T06:06:49.820Z,10.5
2018-08-24T06:08:49.825Z,10.2
2018-08-24T06:10:49.836Z,9.6
2018-08-24T06:12:49.831Z,9.4
2018-08-24T06:14:49.786Z,9.4
2018-08-24T06:16:49.958Z,9.8
2018-08-24T06:18:49.538Z,8.5
2018-08-24T06:20:49.536Z,8.6
2018-08-24T06:22:49.658Z,8.6
2018-08-24T06:24:49.749Z,8.5
2018-08-24T06:26:50.116Z,8.5
2018-08-24T06:28:50.231Z,8.7
2018-08-24T06:30:50.302Z,8.3
2018-08-24T06:32:49.758Z,8.3
2018-08-24T06:34:50.429Z,8.6
2018-08-24T06:36:49.652Z,8.6
2018-08-24T06:38:49.938Z,7.6
2018-08-24T06:40:49.910Z,7.3
2018-08-24T06:42:50.000Z,6.8
2018-08-24T06:44:49.892Z,7.5
2018-08-24T06:46:50.423Z,7.5
2018-08-24T06:48:49.973Z,7.3
2018-08-24T06:50:49.577Z,7.0
2018-08-24T06:52:49.851Z,6.8
2018-08-24T06:54:50.183Z,7.7
2018-08-24T06:56:49.909Z,7.7
2018-08-24T06:58:49.941Z,7.6
2018-08-24T07:00:50.139Z,7.6
2018-08-24T07:02:49.636Z,7.4
2018-08-24T07:04:49.866Z,7.4
2018-08-24T07:06:50.348Z,7.8
2018-08-24T07:08:49.544Z,7.8
2018-08-24T07:10:49.653Z,8.2
2018-08-24T07:12:49.854Z,8.1
2018-08-24T07:14:50.160Z,8.1
2018-08-24T07:16:50.281Z,8.8
2018-08-24T07:18:50.273Z,7.8
2018-08-24T07:20:50.493Z,8.1
2018-08-24T07:22:49.735Z,8.6
2018-08-24T07:24:49.722Z,8.6
2018-08-24T07:26:49.904Z,8.1
2018-08-24T07:28:49.887Z,9.0
2018-08-24T07:30:49.910Z,8.7
2018-08-24T07:32:49.923Z,8.1
2018-08-24T07:34:50.364Z,8.1
2018-08-24T07:36:49.598Z,8.0
2018-08-24T07:38:49.613Z,9.1
2018-08-24T07:40:49.801Z,9.0
2018-08-24T07:42:49.765Z,9.0
2018-08-24T07:44:49.732Z,8.1
2018-08-24T07:46:49.938Z,8.9
2018-08-24T07:48:50.072Z,9.1
2018-08-24T07:50:50.426Z,8.8
2018-08-24T07:52:50.041Z,9.0
2018-08-24T07:54:50.264Z,9.0
2018-08-24T07:56:49.639Z,9.9
2018-08-24T07:58:49.914Z,9.6
2018-08-24T08:00:50.032Z,9.2
2018-08-24T08:02:50.253Z,9.2
2018-08-24T08:04:49.623Z,9.6
2018-08-24T08:06:49.809Z,9.2
2018-08-24T08:08:49.721Z,9.5
2018-08-24T08:10:49.798Z,9.1
2018-08-24T08:12:49.868Z,9.1
2018-08-24T08:14:49.868Z,9.0
2018-08-24T08:16:50.265Z,9.2
2018-08-24T08:18:49.523Z,8.2
2018-08-24T08:20:49.702Z,8.2
2018-08-24T08:22:49.873Z,8.5
2018-08-24T08:24:50.222Z,9.0
2018-08-24T08:26:49.826Z,7.8
2018-08-24T08:28:49.889Z,7.8
2018-08-24T08:30:49.943Z,30.5
2018-08-24T08:32:50.155Z,7.2
2018-08-24T08:34:50.167Z,6.8
2018-08-24T08:36:50.222Z,6.6
2018-08-24T08:38:50.443Z,6.1
2018-08-24T08:40:49.899Z,6.1
2018-08-24T08:42:50.058Z,6.5
2018-08-24T08:44:50.258Z,6.5
2018-08-24T08:46:49.534Z,6.0
2018-08-24T08:48:49.747Z,6.0
2018-08-24T08:50:49.868Z,6.4
2018-08-24T08:52:50.051Z,6.5
2018-08-24T08:54:50.190Z,6.7
2018-08-24T08:56:49.592Z,6.7
2018-08-24T08:58:49.760Z,5.9
2018-08-24T09:00:49.959Z,5.9
2018-08-24T09:02:50.224Z,6.0
2018-08-24T09:04:50.421Z,6.1
2018-08-24T09:06:50.537Z,5.6
2018-08-24T09:08:49.616Z,5.6
2018-08-24T09:10:49.744Z,5.6
2018-08-24T09:12:50.009Z,5.8
2018-08-24T09:14:50.331Z,5.8
2018-08-24T09:16:49.740Z,5.8
2018-08-24T09:18:49.878Z,5.8
2018-08-24T09:20:50.041Z,6.2
2018-08-24T09:22:50.346Z,5.3
2018-08-24T09:24:49.516Z,5.5
2018-08-24T09:26:49.690Z,5.9
2018-08-24T09:28:50.325Z,5.9
2018-08-24T09:30:50.481Z,6.5
2018-08-24T09:32:49.844Z,6.3
2018-08-24T09:34:50.333Z,5.9
2018-08-24T09:36:49.794Z,5.9
2018-08-24T09:38:49.954Z,6.1
2018-08-24T09:40:50.124Z,5.9
2018-08-24T09:42:50.022Z,6.0
2018-08-24T09:44:50.275Z,5.9
2018-08-24T09:46:49.611Z,5.9
2018-08-24T09:48:49.737Z,5.7
2018-08-24T09:50:49.869Z,5.6
2018-08-24T09:52:49.965Z,5.4
2018-08-24T09:54:50.189Z,4.5
2018-08-24T09:56:49.589Z,4.5
2018-08-24T09:58:50.318Z,4.2
2018-08-24T10:00:49.700Z,3.8
2018-08-24T10:02:50.077Z,3.5
2018-08-24T10:04:50.248Z,3.4
2018-08-24T10:06:49.992Z,3.4
2018-08-24T10:08:50.183Z,3.5
2018-08-24T10:10:50.118Z,3.2
2018-08-24T10:12:50.290Z,3.2
2018-08-24T10:14:50.518Z,2.4
2018-08-24T10:16:50.079Z,2.8
2018-08-24T10:18:50.253Z,2.8
2018-08-24T10:20:50.442Z,2.5
2018-08-24T10:22:49.665Z,2.8
2018-08-24T10:24:49.823Z,2.6
2018-08-24T10:26:50.097Z,2.5
2018-08-24T10:28:50.269Z,2.5
2018-08-24T10:30:50.368Z,2.3
2018-08-24T10:32:49.602Z,2.9
2018-08-24T10:34:50.194Z,2.6
2018-08-24T10:36:49.668Z,2.6
2018-08-24T10:38:49.908Z,2.5
2018-08-24T10:40:50.413Z,2.9
2018-08-24T10:42:50.305Z,2.9
2018-08-24T10:44:50.439Z,2.8
2018-08-24T10:46:49.828Z,2.8
2018-08-24T10:48:49.982Z,2.9
2018-08-24T10:50:50.162Z,2.9
2018-08-24T10:52:50.299Z,3.4
2018-08-24T10:54:50.651Z,3.4
2018-08-24T10:56:49.654Z,3.0
2018-08-24T10:58:49.827Z,3.2
2018-08-24T11:00:50.175Z,3.1
2018-08-24T11:02:50.266Z,3.1
2018-08-24T11:04:49.865Z,2.7
2018-08-24T11:06:50.206Z,2.7
2018-08-24T11:08:50.336Z,2.9
2018-08-24T11:10:50.526Z,2.8
2018-08-24T11:12:49.764Z,2.8
2018-08-24T11:14:49.854Z,3.3
2018-08-24T11:16:50.238Z,3.3
2018-08-24T11:18:49.940Z,3.6
2018-08-24T11:20:50.137Z,3.9
2018-08-24T11:22:50.343Z,4.0
2018-08-24T11:24:49.547Z,4.2
2018-08-24T11:26:50.214Z,4.2
2018-08-24T11:28:49.929Z,3.7
2018-08-24T11:30:50.143Z,3.7
2018-08-24T11:32:50.306Z,3.6
2018-08-24T11:34:49.881Z,3.6
2018-08-24T11:36:50.162Z,3.6
2018-08-24T11:38:50.357Z,3.7
2018-08-24T11:40:49.690Z,3.7
2018-08-24T11:42:49.949Z,4.1
2018-08-24T11:44:50.254Z,4.1
2018-08-24T11:46:49.719Z,3.5
2018-08-24T11:48:50.004Z,3.7
2018-08-24T11:50:50.171Z,3.4
2018-08-24T11:52:49.658Z,3.6
2018-08-24T11:54:49.916Z,3.6
2018-08-24T11:56:50.271Z,3.4
2018-08-24T11:58:50.420Z,3.7
2018-08-24T12:00:49.686Z,3.2
2018-08-24T12:02:50.203Z,3.3
2018-08-24T12:04:50.499Z,3.3
2018-08-24T12:06:49.941Z,2.9
2018-08-24T12:08:50.108Z,2.8
2018-08-24T12:10:50.392Z,2.7
2018-08-24T12:12:49.652Z,2.7
2018-08-24T12:14:49.855Z,2.7
2018-08-24T12:16:50.335Z,2.7
2018-08-24T12:18:50.090Z,3.0
2018-08-24T12:20:50.370Z,2.9
2018-08-24T12:22:50.134Z,2.9
2018-08-24T12:24:50.469Z,2.9
2018-08-24T12:26:49.891Z,2.7
2018-08-24T12:28:50.054Z,2.8
2018-08-24T12:30:50.337Z,3.1
2018-08-24T12:32:49.723Z,3.1
2018-08-24T12:34:50.264Z,3.1
2018-08-24T12:36:49.590Z,2.9
2018-08-24T12:38:49.814Z,2.8
2018-08-24T12:40:49.990Z,2.8
2018-08-24T12:42:50.177Z,2.8
2018-08-24T12:44:50.476Z,3.0
2018-08-24T12:46:50.499Z,2.8
2018-08-24T12:48:49.944Z,3.0
2018-08-24T12:50:49.853Z,3.0
2018-08-24T12:52:50.138Z,2.9
2018-08-24T12:54:50.098Z,3.3
2018-08-24T12:56:49.754Z,3.0
2018-08-24T12:58:49.784Z,3.0
2018-08-24T13:00:49.761Z,3.1
2018-08-24T13:02:49.946Z,2.7
2018-08-24T13:04:50.120Z,2.9
2018-08-24T13:06:49.826Z,2.8
2018-08-24T13:08:50.445Z,2.8
2018-08-24T13:10:49.971Z,2.8
2018-08-24T13:12:50.149Z,2.9
2018-08-24T13:14:50.349Z,3.0
2018-08-24T13:16:49.693Z,3.0
2018-08-24T13:18:49.919Z,3.2
2018-08-24T13:20:50.177Z,3.2
2018-08-24T13:22:50.362Z,3.1
2018-08-24T13:24:49.623Z,2.9
2018-08-24T13:26:50.233Z,3.1
2018-08-24T13:28:49.887Z,3.7
2018-08-24T13:30:50.051Z,3.7
2018-08-24T13:32:50.235Z,2.8
2018-08-24T13:34:49.679Z,2.9
2018-08-24T13:36:50.116Z,3.2
2018-08-24T13:38:50.354Z,3.2
2018-08-24T13:40:50.016Z,3.3
2018-08-24T13:42:50.224Z,2.8
2018-08-24T13:44:50.419Z,3.1
2018-08-24T13:46:49.624Z,3.4
2018-08-24T13:48:49.606Z,3.4
2018-08-24T13:50:49.673Z,3.1
2018-08-24T13:52:49.817Z,3.1
2018-08-24T13:54:50.177Z,3.6
2018-08-24T13:56:49.920Z,3.6
2018-08-24T13:58:49.993Z,3.9
2018-08-24T14:00:49.971Z,4.3
2018-08-24T14:02:50.200Z,3.9
2018-08-24T14:04:49.598Z,3.9
2018-08-24T14:06:49.836Z,4.1
2018-08-24T14:08:49.774Z,4.1
2018-08-24T14:10:49.798Z,3.7
2018-08-24T14:12:49.785Z,3.7
2018-08-24T14:14:49.770Z,3.6
2018-08-24T14:16:49.890Z,3.8
2018-08-24T14:18:49.872Z,3.8
2018-08-24T14:20:50.111Z,3.5
2018-08-24T14:22:50.457Z,3.8
2018-08-24T14:24:50.515Z,4.2
2018-08-24T14:26:49.688Z,4.2
2018-08-24T14:28:49.797Z,4.2
2018-08-24T14:30:49.767Z,4.3
2018-08-24T14:32:49.734Z,4.3
2018-08-24T14:34:50.046Z,4.3
2018-08-24T14:36:50.208Z,4.1
2018-08-24T14:38:50.217Z,4.1
2018-08-24T14:40:50.249Z,4.0
2018-08-24T14:42:50.280Z,3.9
2018-08-24T14:44:50.250Z,4.1
2018-08-24T14:46:50.563Z,4.1
2018-08-24T14:48:49.544Z,4.4
2018-08-24T14:50:49.685Z,4.3
2018-08-24T14:52:49.893Z,4.4
2018-08-24T14:54:50.117Z,4.4
2018-08-24T14:56:50.517Z,4.3
2018-08-24T14:58:49.775Z,4.0
2018-08-24T15:00:49.972Z,3.7
2018-08-24T15:02:50.115Z,3.5
2018-08-24T15:04:49.636Z,3.5
2018-08-24T15:06:49.750Z,4.0
2018-08-24T15:08:49.721Z,4.0
2018-08-24T15:10:49.843Z,3.9
2018-08-24T15:12:49.861Z,3.9
2018-08-24T15:14:49.767Z,3.9
2018-08-24T15:16:49.972Z,3.5
2018-08-24T15:18:50.196Z,4.0
2018-08-24T15:20:50.195Z,3.8
2018-08-24T15:22:50.278Z,4.2
2018-08-24T15:24:50.279Z,4.2
2018-08-24T15:26:49.634Z,4.1
2018-08-24T15:28:49.688Z,4.4
2018-08-24T15:30:49.703Z,4.5
2018-08-24T15:32:49.826Z,4.6
2018-08-24T15:34:50.201Z,4.6
2018-08-24T15:36:50.376Z,4.7
2018-08-24T15:38:50.380Z,4.8
2018-08-24T15:40:50.380Z,4.8
2018-08-24T15:42:50.332Z,5.3
2018-08-24T15:44:50.511Z,5.3
2018-08-24T15:46:49.743Z,5.6
2018-08-24T15:48:49.785Z,5.7
2018-08-24T15:50:49.762Z,5.6
2018-08-24T15:52:49.976Z,5.4
2018-08-24T15:54:50.154Z,5.4
2018-08-24T15:56:50.484Z,5.9
2018-08-24T15:58:49.672Z,6.1
2018-08-24T16:00:49.848Z,6.0
2018-08-24T16:02:50.039Z,6.0
2018-08-24T16:04:50.339Z,5.9
2018-08-24T16:06:50.397Z,5.9
2018-08-24T16:08:50.495Z,6.2
2018-08-24T16:10:50.506Z,6.2
2018-08-24T16:12:50.509Z,6.2
2018-08-24T16:14:49.609Z,6.5
2018-08-24T16:16:49.942Z,6.7
2018-08-24T16:18:49.969Z,6.6
2018-08-24T16:20:49.976Z,6.6
2018-08-24T16:22:49.972Z,6.8
2018-08-24T16:24:49.960Z,6.7
2018-08-24T16:26:50.115Z,6.7
2018-08-24T16:28:50.065Z,6.7
2018-08-24T16:30:50.096Z,6.5
2018-08-24T16:32:50.164Z,6.5
2018-08-24T16:34:49.525Z,7.0
2018-08-24T16:36:49.797Z,7.1
2018-08-24T16:38:50.188Z,7.4
2018-08-24T16:40:49.628Z,7.4
2018-08-24T16:42:49.656Z,7.4
2018-08-24T16:44:49.713Z,6.9
2018-08-24T16:46:50.195Z,7.3
2018-08-24T16:48:49.838Z,7.1
2018-08-24T16:50:49.890Z,7.1
2018-08-24T16:52:49.904Z,7.1
2018-08-24T16:54:49.880Z,7.2
2018-08-24T16:56:50.034Z,7.4
2018-08-24T16:58:49.970Z,7.4
2018-08-24T17:00:50.021Z,7.3
2018-08-24T17:02:50.046Z,7.2
2018-08-24T17:04:50.415Z,7.3
2018-08-24T17:06:49.577Z,7.0
2018-08-24T17:08:49.626Z,7.0
2018-08-24T17:10:49.729Z,7.3
2018-08-24T17:12:49.920Z,6.8
2018-08-24T17:14:50.279Z,7.0
2018-08-24T17:16:50.409Z,7.5
2018-08-24T17:18:50.433Z,6.9
2018-08-24T17:20:50.430Z,6.9
2018-08-24T17:22:50.474Z,7.1
2018-08-24T17:24:50.504Z,7.0
2018-08-24T17:26:49.710Z,7.1
2018-08-24T17:28:49.801Z,7.3
2018-08-24T17:30:49.967Z,7.3
2018-08-24T17:32:50.074Z,7.1
2018-08-24T17:34:50.274Z,9.1
2018-08-24T17:36:49.676Z,9.1
2018-08-24T17:38:49.650Z,7.4
2018-08-24T17:40:49.765Z,7.4
2018-08-24T17:42:49.761Z,7.4
2018-08-24T17:44:49.730Z,7.1
2018-08-24T17:46:49.916Z,7.1
2018-08-24T17:48:49.920Z,7.1
2018-08-24T17:50:49.951Z,7.1
2018-08-24T17:52:49.992Z,7.1
2018-08-24T17:54:49.910Z,7.2
2018-08-24T17:56:50.093Z,7.2
2018-08-24T17:58:50.096Z,7.6
2018-08-24T18:00:50.083Z,7.6
2018-08-24T18:02:50.130Z,7.3
2018-08-24T18:04:50.454Z,7.3
2018-08-24T18:06:49.832Z,7.1
2018-08-24T18:08:49.866Z,7.1
2018-08-24T18:10:49.860Z,8.1
2018-08-24T18:12:49.895Z,7.5
2018-08-24T18:14:50.077Z,7.2
2018-08-24T18:16:49.747Z,7.4
2018-08-24T18:18:49.726Z,7.4
2018-08-24T18:20:49.878Z,7.2
2018-08-24T18:22:50.099Z,6.9
2018-08-24T18:24:50.061Z,7.6
2018-08-24T18:26:50.085Z,7.2
2018-08-24T18:28:50.167Z,7.2
2018-08-24T18:30:50.145Z,7.4
2018-08-24T18:32:50.077Z,7.6
2018-08-24T18:34:49.634Z,7.2
2018-08-24T18:36:50.175Z,7.8
2018-08-24T18:38:50.190Z,7.8
2018-08-24T18:40:50.161Z,7.6
2018-08-24T18:42:50.254Z,7.8
2018-08-24T18:44:50.229Z,7.8
2018-08-24T18:46:50.393Z,7.7
2018-08-24T18:48:50.413Z,7.7
2018-08-24T18:50:50.638Z,7.9
2018-08-24T18:52:50.308Z,7.7
2018-08-24T18:54:50.266Z,8.3
2018-08-24T18:56:50.465Z,8.3
2018-08-24T18:58:50.505Z,7.8
2018-08-24T19:00:50.471Z,7.9
2018-08-24T19:02:49.807Z,7.4
2018-08-24T19:04:50.187Z,8.0
2018-08-24T19:06:50.332Z,8.0
2018-08-24T19:08:49.538Z,8.4
2018-08-24T19:10:49.644Z,7.7
2018-08-24T19:12:49.568Z,7.6
2018-08-24T19:14:49.638Z,8.1
2018-08-24T19:16:49.941Z,8.1
2018-08-24T19:18:49.953Z,8.4
2018-08-24T19:20:50.251Z,8.2
2018-08-24T19:22:49.919Z,8.2
2018-08-24T19:24:49.916Z,8.4
2018-08-24T19:26:50.004Z,8.4
2018-08-24T19:28:49.980Z,8.3
2018-08-24T19:30:49.957Z,8.6
2018-08-24T19:32:50.011Z,8.7
2018-08-24T19:34:50.226Z,8.7
2018-08-24T19:36:50.449Z,8.1
2018-08-24T19:38:50.518Z,8.5
2018-08-24T19:40:50.517Z,8.2
2018-08-24T19:42:50.513Z,8.5
2018-08-24T19:44:49.520Z,8.5
2018-08-24T19:46:49.807Z,8.4
2018-08-24T19:48:49.783Z,8.0
2018-08-24T19:50:49.664Z,8.4
2018-08-24T19:52:49.713Z,8.4
2018-08-24T19:54:49.756Z,8.1
2018-08-24T19:56:49.862Z,8.8
2018-08-24T19:58:50.021Z,8.0
2018-08-24T20:00:49.961Z,8.0
2018-08-24T20:02:50.378Z,8.4
2018-08-24T20:04:49.644Z,9.1
2018-08-24T20:06:49.951Z,8.2
2018-08-24T20:08:49.980Z,8.3
2018-08-24T20:10:50.116Z,8.7
2018-08-24T20:12:50.073Z,8.7
2018-08-24T20:14:50.085Z,8.1
2018-08-24T20:16:50.172Z,7.8
2018-08-24T20:18:50.420Z,8.0
2018-08-24T20:20:50.468Z,8.0
2018-08-24T20:22:50.433Z,8.3
2018-08-24T20:24:49.643Z,8.2
2018-08-24T20:26:49.779Z,8.4
2018-08-24T20:28:49.809Z,9.5
2018-08-24T20:30:49.868Z,9.5
2018-08-24T20:32:49.964Z,8.4
2018-08-24T20:34:50.220Z,8.0
2018-08-24T20:36:50.345Z,8.0
2018-08-24T20:38:50.460Z,7.9
2018-08-24T20:40:50.502Z,7.9
2018-08-24T20:42:49.528Z,8.0
2018-08-24T20:44:49.647Z,7.8
2018-08-24T20:46:49.924Z,8.0
2018-08-24T20:48:50.006Z,8.0
2018-08-24T20:50:49.966Z,7.7
2018-08-24T20:52:49.992Z,7.7
2018-08-24T20:54:50.166Z,8.8
2018-08-24T20:56:50.510Z,8.2
2018-08-24T20:58:49.537Z,8.2
2018-08-24T21:00:49.531Z,8.4
2018-08-24T21:02:49.557Z,8.4
2018-08-24T21:04:50.080Z,8.4
2018-08-24T21:06:50.320Z,7.9
2018-08-24T21:08:50.302Z,8.1
2018-08-24T21:10:50.274Z,8.2
2018-08-24T21:12:50.391Z,8.2
2018-08-24T21:14:50.424Z,8.6
2018-08-24T21:16:50.065Z,8.7
2018-08-24T21:18:50.287Z,8.7
2018-08-24T21:20:50.333Z,8.4
2018-08-24T21:22:50.401Z,8.7
2018-08-24T21:24:50.349Z,8.2
2018-08-24T21:26:49.645Z,8.3
2018-08-24T21:28:49.645Z,7.9
2018-08-24T21:30:49.673Z,7.9
2018-08-24T21:32:49.733Z,7.8
2018-08-24T21:34:50.276Z,8.3
2018-08-24T21:36:49.585Z,8.3
2018-08-24T21:38:49.597Z,8.0
2018-08-24T21:40:49.733Z,8.7
2018-08-24T21:42:49.692Z,7.9
2018-08-24T21:44:49.699Z,8.0
2018-08-24T21:46:50.035Z,8.0
2018-08-24T21:48:50.053Z,7.9
2018-08-24T21:50:50.075Z,7.9
2018-08-24T21:52:50.060Z,7.6
2018-08-24T21:54:50.153Z,7.3
2018-08-24T21:56:50.255Z,7.3
2018-08-24T21:58:50.291Z,7.9
2018-08-24T22:00:50.305Z,7.9
2018-08-24T22:02:49.617Z,7.3
2018-08-24T22:04:49.987Z,7.3
2018-08-24T22:06:50.178Z,7.3
2018-08-24T22:08:50.104Z,7.3
2018-08-24T22:10:50.212Z,7.2
2018-08-24T22:12:50.326Z,6.9
2018-08-24T22:14:50.302Z,7.2
2018-08-24T22:16:50.764Z,7.2
2018-08-24T22:18:50.177Z,7.3
2018-08-24T22:20:50.362Z,6.5
2018-08-24T22:22:50.318Z,7.1
2018-08-24T22:24:50.419Z,7.1
2018-08-24T22:26:49.626Z,7.0
2018-08-24T22:28:49.679Z,7.0
2018-08-24T22:30:49.790Z,6.6
2018-08-24T22:32:49.715Z,7.0
2018-08-24T22:34:50.031Z,7.0
2018-08-24T22:36:50.271Z,6.3
2018-08-24T22:38:50.317Z,6.3
2018-08-24T22:40:50.262Z,6.3
2018-08-24T22:42:50.269Z,6.4
2018-08-24T22:44:50.240Z,6.2
2018-08-24T22:46:50.370Z,6.2
2018-08-24T22:48:50.393Z,6.4
2018-08-24T22:50:50.379Z,6.4
2018-08-24T22:52:50.464Z,6.3
2018-08-24T22:54:50.486Z,6.5
2018-08-24T22:56:49.702Z,6.5
2018-08-24T22:58:49.714Z,5.8
2018-08-24T23:00:49.796Z,6.2
2018-08-24T23:02:49.785Z,5.9
2018-08-24T23:04:49.998Z,6.2
2018-08-24T23:06:50.225Z,6.2
2018-08-24T23:08:50.188Z,5.8
2018-08-24T23:10:50.155Z,5.8
2018-08-24T23:12:50.134Z,6.2
2018-08-24T23:14:50.226Z,6.2
2018-08-24T23:16:50.279Z,6.3
2018-08-24T23:18:50.339Z,5.6
2018-08-24T23:20:50.334Z,5.8
2018-08-24T23:22:50.505Z,5.8
2018-08-24T23:24:49.576Z,5.9
2018-08-24T23:26:49.862Z,5.9
2018-08-24T23:28:49.833Z,5.9
2018-08-24T23:30:49.845Z,5.7
2018-08-24T23:32:49.843Z,5.7
2018-08-24T23:34:50.225Z,5.7
2018-08-24T23:36:50.404Z,5.7
2018-08-24T23:38:50.380Z,5.9
2018-08-24T23:40:50.348Z,5.7
2018-08-24T23:42:50.381Z,5.8
2018-08-24T23:44:49.557Z,5.8
2018-08-24T23:46:49.800Z,5.4
2018-08-24T23:48:49.752Z,5.7
2018-08-24T23:50:49.710Z,5.7
2018-08-24T23:52:49.771Z,5.5
2018-08-24T23:54:49.781Z,5.4
2018-08-24T23:56:49.850Z,5.2
2018-08-24T23:58:49.868Z,5.4
